createdAt,value
2022-12-18T00:00:19.063Z,102027.13
2022-12-18T00:01:25.729Z,102030.88
2022-12-18T00:02:28.102Z,102032.47
2022-12-18T00:03:31.596Z,102040.25
2022-12-18T00:04:34.955Z,102034.84
2022-12-18T00:05:37.347Z,102035.28
2022-12-18T00:06:40.779Z,102035.69
2022-12-18T00:07:43.977Z,102035.84
2022-12-18T00:08:47.793Z,102038.28
2022-12-18T00:09:50.033Z,102038.06
2022-12-18T00:10:53.433Z,102033.66
2022-12-18T00:11:56.376Z,102034.78
2022-12-18T00:13:00.724Z,102041.25
2022-12-18T00:14:03.784Z,102033.13
2022-12-18T00:15:07.784Z,102038.09
2022-12-18T00:16:11.617Z,102049.53
2022-12-18T00:17:16.614Z,102048.75
2022-12-18T00:18:20.632Z,102039.75
2022-12-18T00:19:24.415Z,102053.56
2022-12-18T00:20:26.873Z,102032.84
2022-12-18T00:21:31.735Z,102038.69
2022-12-18T00:22:34.293Z,102041.50
2022-12-18T00:23:40.023Z,102038.69
2022-12-18T00:24:43.732Z,102040.47
2022-12-18T00:25:45.960Z,102042.47
2022-12-18T00:26:49.133Z,102048.88
2022-12-18T00:27:51.383Z,102043.69
2022-12-18T00:28:55.039Z,102037.69
2022-12-18T00:29:57.259Z,102037.31
2022-12-18T00:31:04.557Z,102044.50
2022-12-18T00:32:06.814Z,102049.25
2022-12-18T00:33:11.913Z,102051.22
2022-12-18T00:34:14.797Z,102048.63
2022-12-18T00:35:18.568Z,102043.41
2022-12-18T00:36:23.256Z,102043.84
2022-12-18T00:37:26.491Z,102046.25
2022-12-18T00:38:28.910Z,102043.44
2022-12-18T00:39:32.147Z,102049.44
2022-12-18T00:40:34.587Z,102045.59
2022-12-18T00:41:55.347Z,102052.66
2022-12-18T00:42:57.570Z,102057.91
2022-12-18T00:44:00.920Z,102052.84
2022-12-18T00:45:07.635Z,102056.66
2022-12-18T00:46:14.135Z,102056.81
2022-12-18T00:47:16.503Z,102052.44
2022-12-18T00:48:21.271Z,102059.50
2022-12-18T00:49:23.731Z,102055.53
2022-12-18T00:50:27.570Z,102060.94
2022-12-18T00:51:29.854Z,102056.75
2022-12-18T00:52:33.162Z,102063.56
2022-12-18T00:53:35.710Z,102062.78
2022-12-18T00:54:39.162Z,102062.78
2022-12-18T00:55:42.143Z,102054.94
2022-12-18T00:56:49.048Z,102065.59
2022-12-18T00:57:53.105Z,102067.59
2022-12-18T00:58:56.578Z,102070.19
2022-12-18T00:59:59.900Z,102072.22
2022-12-18T01:01:02.107Z,102075.63
2022-12-18T01:02:05.504Z,102075.63
2022-12-18T01:03:07.777Z,102072.00
2022-12-18T01:04:12.800Z,102078.47
2022-12-18T01:05:15.771Z,102080.88
2022-12-18T01:06:19.484Z,102079.06
2022-12-18T01:07:21.699Z,102073.41
2022-12-18T01:08:25.245Z,102080.66
2022-12-18T01:09:27.545Z,102078.06
2022-12-18T01:10:30.981Z,102086.09
2022-12-18T01:11:33.365Z,102084.06
2022-12-18T01:12:36.770Z,102082.28
2022-12-18T01:13:39.530Z,102088.50
2022-12-18T01:14:43.032Z,102084.44
2022-12-18T01:15:49.670Z,102080.03
2022-12-18T01:16:53.104Z,102082.88
2022-12-18T01:17:55.393Z,102091.31
2022-12-18T01:18:58.804Z,102090.88
2022-12-18T01:20:02.586Z,102091.09
2022-12-18T01:21:09.317Z,102099.16
2022-12-18T01:22:11.524Z,102093.72
2022-12-18T01:23:14.934Z,102095.13
2022-12-18T01:24:17.175Z,102088.28
2022-12-18T01:25:20.515Z,102097.94
2022-12-18T01:26:23.403Z,102093.31
2022-12-18T01:27:26.652Z,102099.16
2022-12-18T01:28:28.992Z,102095.53
2022-12-18T01:29:32.439Z,102097.38
2022-12-18T01:30:34.831Z,102099.75
2022-12-18T01:31:38.255Z,102096.97
2022-12-18T01:32:41.142Z,102097.31
2022-12-18T01:33:44.452Z,102103.81
2022-12-18T01:34:46.891Z,102109.22
2022-12-18T01:35:51.651Z,102108.38
2022-12-18T01:36:53.974Z,102105.97
2022-12-18T01:37:57.498Z,102112.25
2022-12-18T01:39:01.484Z,102105.16
2022-12-18T01:40:05.279Z,102104.19
2022-12-18T01:41:08.254Z,102109.81
2022-12-18T01:42:14.246Z,102111.81
2022-12-18T01:43:16.479Z,102111.22
2022-12-18T01:45:02.487Z,102118.66
2022-12-18T01:46:04.880Z,102124.88
2022-12-18T01:47:08.182Z,102128.84
2022-12-18T01:48:10.884Z,102122.81
2022-12-18T01:49:14.245Z,102130.84
2022-12-18T01:50:20.600Z,102127.41
2022-12-18T01:51:25.777Z,102125.88
2022-12-18T01:52:32.069Z,102118.84
2022-12-18T01:53:35.745Z,102126.66
2022-12-18T01:54:38.124Z,102124.47
2022-12-18T01:55:47.805Z,102124.50
2022-12-18T01:56:50.139Z,102133.72
2022-12-18T01:57:56.192Z,102124.09
2022-12-18T01:59:03.495Z,102131.53
2022-12-18T02:00:10.343Z,102130.91
2022-12-18T02:01:12.957Z,102131.50
2022-12-18T02:02:18.149Z,102127.72
2022-12-18T02:03:20.575Z,102128.31
2022-12-18T02:04:25.155Z,102124.50
2022-12-18T02:05:43.156Z,102127.09
2022-12-18T02:06:49.433Z,102125.50
2022-12-18T02:08:04.659Z,102122.69
2022-12-18T02:09:15.220Z,102122.69
2022-12-18T02:10:26.185Z,102122.47
2022-12-18T02:11:40.939Z,102129.25
2022-12-18T02:12:48.701Z,102132.81
2022-12-18T02:14:01.507Z,102136.44
2022-12-18T02:15:12.119Z,102133.44
2022-12-18T02:16:22.475Z,102136.22
2022-12-18T02:17:34.729Z,102132.81
2022-12-18T02:18:41.021Z,102140.59
2022-12-18T02:19:59.706Z,102145.88
2022-12-18T02:21:10.608Z,102145.09
2022-12-18T02:22:26.560Z,102145.78
2022-12-18T02:23:42.775Z,102153.91
2022-12-18T02:25:01.119Z,102146.28
2022-12-18T02:26:11.223Z,102148.94
2022-12-18T02:27:15.583Z,102158.59
2022-12-18T02:28:21.183Z,102151.44
2022-12-18T02:29:29.503Z,102159.28
2022-12-18T02:30:35.070Z,102155.28
2022-12-18T02:31:44.686Z,102155.75
2022-12-18T02:32:52.268Z,102158.47
2022-12-18T02:33:58.672Z,102164.69
2022-12-18T02:35:03.360Z,102158.66
2022-12-18T02:36:08.658Z,102159.69
2022-12-18T02:37:15.014Z,102167.22
2022-12-18T02:38:20.241Z,102167.66
2022-12-18T02:39:25.171Z,102169.03
2022-12-18T02:40:30.885Z,102162.53
2022-12-18T02:41:37.242Z,102164.56
2022-12-18T02:42:40.773Z,102164.84
2022-12-18T02:43:48.797Z,102172.09
2022-12-18T02:44:53.875Z,102164.19
2022-12-18T02:45:58.481Z,102174.66
2022-12-18T02:47:01.967Z,102172.34
2022-12-18T02:48:04.685Z,102172.13
2022-12-18T02:49:19.954Z,102165.72
2022-12-18T02:50:32.339Z,102170.13
2022-12-18T02:51:42.905Z,102170.13
2022-12-18T02:52:57.358Z,102172.34
2022-12-18T02:54:07.833Z,102168.88
2022-12-18T02:55:22.360Z,102174.91
2022-12-18T02:56:31.733Z,102164.91
2022-12-18T02:57:45.273Z,102175.28
2022-12-18T02:58:54.687Z,102173.44
2022-12-18T03:00:03.853Z,102171.41
2022-12-18T03:01:15.229Z,102179.25
2022-12-18T03:02:26.459Z,102179.59
2022-12-18T03:03:33.886Z,102181.63
2022-12-18T03:04:42.628Z,102183.81
2022-12-18T03:05:52.187Z,102182.03
2022-12-18T03:06:58.536Z,102184.41
2022-12-18T03:08:04.748Z,102186.84
2022-12-18T03:09:14.356Z,102190.25
2022-12-18T03:10:25.297Z,102188.41
2022-12-18T03:11:51.103Z,102192.47
2022-12-18T03:13:02.443Z,102192.47
2022-12-18T03:14:08.155Z,102190.38
2022-12-18T03:15:17.766Z,102194.84
2022-12-18T03:16:25.581Z,102196.88
2022-12-18T03:17:32.644Z,102199.09
2022-12-18T03:18:39.657Z,102203.72
2022-12-18T03:19:45.266Z,102206.94
2022-12-18T03:20:51.373Z,102205.47
2022-12-18T03:21:57.972Z,102207.16
2022-12-18T03:23:08.903Z,102204.09
2022-12-18T03:24:13.435Z,102199.72
2022-12-18T03:25:18.817Z,102204.53
2022-12-18T03:26:25.697Z,102209.75
2022-12-18T03:27:30.416Z,102210.81
2022-12-18T03:28:40.711Z,102214.47
2022-12-18T03:29:48.797Z,102210.00
2022-12-18T03:30:57.852Z,102203.78
2022-12-18T03:32:05.806Z,102204.09
2022-12-18T03:33:13.250Z,102208.38
2022-12-18T03:34:18.401Z,102211.09
2022-12-18T03:35:25.120Z,102214.13
2022-12-18T03:36:28.537Z,102210.50
2022-12-18T03:37:33.492Z,102215.56
2022-12-18T03:38:35.984Z,102206.72
2022-12-18T03:39:39.848Z,102212.38
2022-12-18T03:40:54.258Z,102213.47
2022-12-18T03:42:07.268Z,102219.88
2022-12-18T03:43:14.644Z,102215.31
2022-12-18T03:44:30.386Z,102215.06
2022-12-18T03:45:37.375Z,102213.84
2022-12-18T03:46:49.295Z,102213.84
2022-12-18T03:48:01.247Z,102213.25
2022-12-18T03:49:12.323Z,102208.66
2022-12-18T03:50:21.056Z,102208.53
2022-12-18T03:51:30.671Z,102214.28
2022-12-18T03:52:39.594Z,102207.44
2022-12-18T03:53:50.219Z,102206.09
2022-12-18T03:54:56.497Z,102208.53
2022-12-18T03:56:02.930Z,102213.75
2022-12-18T03:57:10.785Z,102206.69
2022-12-18T03:58:18.389Z,102211.72
2022-12-18T03:59:23.353Z,102213.38
2022-12-18T04:00:26.782Z,102216.31
2022-12-18T04:01:33.831Z,102219.19
2022-12-18T04:02:41.131Z,102211.78
2022-12-18T04:03:45.991Z,102220.06
2022-12-18T04:04:53.427Z,102225.09
2022-12-18T04:05:57.083Z,102226.47
2022-12-18T04:07:01.611Z,102214.41
2022-12-18T04:08:04.639Z,102212.00
2022-12-18T04:09:08.484Z,102213.22
2022-12-18T04:10:13.028Z,102215.59
2022-12-18T04:11:17.950Z,102208.09
2022-12-18T04:12:20.197Z,102207.53
2022-12-18T04:13:29.568Z,102206.31
2022-12-18T04:14:36.772Z,102209.88
2022-12-18T04:15:41.666Z,102207.91
2022-12-18T04:16:44.152Z,102209.69
2022-12-18T04:17:50.976Z,102204.81
2022-12-18T04:18:53.586Z,102209.78
2022-12-18T04:19:56.963Z,102203.78
2022-12-18T04:20:59.593Z,102210.59
2022-12-18T04:22:03.138Z,102210.66
2022-12-18T04:23:05.704Z,102209.75
2022-12-18T04:24:09.438Z,102209.13
2022-12-18T04:25:11.909Z,102206.41
2022-12-18T04:26:15.288Z,102217.31
2022-12-18T04:27:17.638Z,102215.09
2022-12-18T04:28:21.127Z,102211.69
2022-12-18T04:29:24.025Z,102207.31
2022-12-18T04:30:29.162Z,102208.94
2022-12-18T04:31:31.541Z,102207.75
2022-12-18T04:32:35.864Z,102216.41
2022-12-18T04:33:38.413Z,102214.19
2022-12-18T04:34:41.887Z,102218.38
2022-12-18T04:35:44.353Z,102215.59
2022-12-18T04:36:47.905Z,102213.38
2022-12-18T04:37:50.271Z,102209.97
2022-12-18T04:38:53.875Z,102201.31
2022-12-18T04:39:56.556Z,102213.03
2022-12-18T04:41:00.159Z,102211.22
2022-12-18T04:42:02.319Z,102201.34
2022-12-18T04:43:06.557Z,102207.22
2022-12-18T04:44:09.228Z,102209.63
2022-12-18T04:45:12.743Z,102206.78
2022-12-18T04:46:16.313Z,102202.78
2022-12-18T04:47:20.197Z,102206.00
2022-12-18T04:48:22.509Z,102203.81
2022-12-18T04:49:25.967Z,102211.03
2022-12-18T04:50:28.815Z,102204.59
2022-12-18T04:51:32.198Z,102206.59
2022-12-18T04:52:34.477Z,102207.19
2022-12-18T04:53:38.165Z,102209.19
2022-12-18T04:54:40.984Z,102205.56
2022-12-18T04:55:44.413Z,102212.84
2022-12-18T04:56:46.879Z,102215.19
2022-12-18T04:57:50.258Z,102215.16
2022-12-18T04:58:52.607Z,102218.16
2022-12-18T04:59:55.956Z,102219.69
2022-12-18T05:00:58.444Z,102216.22
2022-12-18T05:02:03.529Z,102222.66
2022-12-18T05:03:05.990Z,102222.19
2022-12-18T05:04:09.495Z,102224.31
2022-12-18T05:05:11.932Z,102226.59
2022-12-18T05:06:15.307Z,102222.13
2022-12-18T05:07:17.652Z,102230.13
2022-12-18T05:08:21.451Z,102228.19
2022-12-18T05:09:25.000Z,102224.44
2022-12-18T05:10:29.628Z,102229.47
2022-12-18T05:11:34.535Z,102231.41
2022-12-18T05:12:59.346Z,102232.31
2022-12-18T05:14:03.594Z,102230.63
2022-12-18T05:15:08.019Z,102232.13
2022-12-18T05:16:10.671Z,102236.66
2022-12-18T05:17:15.519Z,102240.00
2022-12-18T05:18:17.886Z,102237.56
2022-12-18T05:19:21.287Z,102242.78
2022-12-18T05:20:23.811Z,102244.09
2022-12-18T05:21:27.169Z,102247.72
2022-12-18T05:22:29.429Z,102247.00
2022-12-18T05:23:32.679Z,102241.59
2022-12-18T05:24:34.968Z,102246.81
2022-12-18T05:25:38.319Z,102240.81
2022-12-18T05:26:40.997Z,102234.94
2022-12-18T05:27:44.978Z,102238.78
2022-12-18T05:28:47.391Z,102244.81
2022-12-18T05:29:50.860Z,102245.19
2022-12-18T05:30:54.567Z,102239.28
2022-12-18T05:31:58.106Z,102244.94
2022-12-18T05:33:01.839Z,102238.16
2022-12-18T05:34:05.117Z,102247.13
2022-12-18T05:35:09.618Z,102245.47
2022-12-18T05:36:13.294Z,102251.03
2022-12-18T05:37:15.709Z,102250.47
2022-12-18T05:38:19.165Z,102244.44
2022-12-18T05:39:21.512Z,102244.19
2022-12-18T05:40:24.763Z,102246.88
2022-12-18T05:41:27.065Z,102248.81
2022-12-18T05:42:30.368Z,102253.72
2022-12-18T05:43:35.186Z,102258.13
2022-12-18T05:44:38.391Z,102264.88
2022-12-18T05:45:41.882Z,102267.34
2022-12-18T05:46:45.283Z,102252.91
2022-12-18T05:47:47.572Z,102267.78
2022-12-18T05:48:52.683Z,102265.94
2022-12-18T05:49:55.625Z,102259.28
2022-12-18T05:51:06.793Z,102263.50
2022-12-18T05:52:09.238Z,102271.03
2022-12-18T05:53:12.471Z,102266.78
2022-12-18T05:54:15.089Z,102271.47
2022-12-18T05:55:18.429Z,102270.41
2022-12-18T05:56:23.094Z,102270.91
2022-12-18T05:57:26.426Z,102273.00
2022-12-18T05:58:29.189Z,102275.16
2022-12-18T05:59:32.571Z,102273.59
2022-12-18T06:00:37.147Z,102282.50
2022-12-18T06:01:40.594Z,102275.09
2022-12-18T06:02:42.901Z,102284.69
2022-12-18T06:03:46.764Z,102281.25
2022-12-18T06:04:50.916Z,102287.66
2022-12-18T06:05:54.158Z,102289.00
2022-12-18T06:06:56.390Z,102291.72
2022-12-18T06:08:00.298Z,102296.84
2022-12-18T06:09:02.864Z,102296.13
2022-12-18T06:10:07.529Z,102297.34
2022-12-18T06:11:09.754Z,102298.97
2022-12-18T06:12:13.412Z,102300.56
2022-12-18T06:13:15.901Z,102301.66
2022-12-18T06:14:19.294Z,102303.81
2022-12-18T06:15:21.606Z,102305.56
2022-12-18T06:16:25.466Z,102313.34
2022-12-18T06:17:30.204Z,102307.03
2022-12-18T06:18:33.628Z,102307.59
2022-12-18T06:19:36.131Z,102319.56
2022-12-18T06:20:42.446Z,102319.00
2022-12-18T06:21:44.992Z,102321.56
2022-12-18T06:22:48.332Z,102320.84
2022-12-18T06:23:51.140Z,102333.50
2022-12-18T06:24:54.444Z,102324.78
2022-12-18T06:25:57.554Z,102334.31
2022-12-18T06:27:01.015Z,102324.50
2022-12-18T06:28:03.464Z,102327.19
2022-12-18T06:29:07.034Z,102332.88
2022-12-18T06:30:11.726Z,102332.97
2022-12-18T06:31:15.160Z,102337.00
2022-12-18T06:32:17.827Z,102337.69
2022-12-18T06:33:21.066Z,102342.44
2022-12-18T06:34:23.655Z,102350.06
2022-12-18T06:35:27.062Z,102345.59
2022-12-18T06:36:30.667Z,102351.91
2022-12-18T06:37:34.191Z,102353.16
2022-12-18T06:38:38.776Z,102355.19
2022-12-18T06:39:42.270Z,102355.31
2022-12-18T06:40:44.415Z,102358.50
2022-12-18T06:41:48.176Z,102358.31
2022-12-18T06:42:50.506Z,102362.47
2022-12-18T06:43:59.327Z,102359.41
2022-12-18T06:45:02.113Z,102358.31
2022-12-18T06:46:07.459Z,102359.38
2022-12-18T06:47:10.165Z,102359.28
2022-12-18T06:48:13.520Z,102365.56
2022-12-18T06:49:17.056Z,102361.19
2022-12-18T06:50:20.419Z,102362.81
2022-12-18T06:51:24.747Z,102362.22
2022-12-18T06:52:29.537Z,102363.53
2022-12-18T06:53:33.256Z,102358.69
2022-12-18T06:54:36.796Z,102366.44
2022-12-18T06:55:39.071Z,102372.03
2022-12-18T06:56:42.716Z,102365.31
2022-12-18T06:57:45.049Z,102366.38
2022-12-18T06:58:48.338Z,102363.38
2022-12-18T06:59:51.053Z,102364.47
2022-12-18T07:00:54.469Z,102361.75
2022-12-18T07:01:57.875Z,102374.78
2022-12-18T07:03:01.393Z,102375.19
2022-12-18T07:04:03.716Z,102373.53
2022-12-18T07:05:10.963Z,102384.59
2022-12-18T07:06:16.485Z,102376.06
2022-12-18T07:07:20.393Z,102382.41
2022-12-18T07:08:24.278Z,102378.25
2022-12-18T07:09:29.984Z,102381.63
2022-12-18T07:10:32.237Z,102380.72
2022-12-18T07:11:36.095Z,102380.59
2022-12-18T07:12:38.485Z,102387.06
2022-12-18T07:13:42.033Z,102383.91
2022-12-18T07:14:44.702Z,102384.72
2022-12-18T07:15:48.086Z,102380.69
2022-12-18T07:16:51.567Z,102378.56
2022-12-18T07:17:54.401Z,102384.59
2022-12-18T07:18:58.375Z,102386.59
2022-12-18T07:20:00.611Z,102393.47
2022-12-18T07:21:07.523Z,102391.25
2022-12-18T07:22:09.752Z,102389.69
2022-12-18T07:23:13.061Z,102392.97
2022-12-18T07:24:16.864Z,102391.72
2022-12-18T07:25:20.460Z,102390.19
2022-12-18T07:26:23.463Z,102391.03
2022-12-18T07:27:27.227Z,102389.38
2022-12-18T07:28:30.490Z,102391.38
2022-12-18T07:29:33.988Z,102405.13
2022-12-18T07:30:39.593Z,102398.13
2022-12-18T07:31:41.949Z,102394.25
2022-12-18T07:32:45.277Z,102391.13
2022-12-18T07:33:48.096Z,102395.66
2022-12-18T07:34:51.440Z,102397.94
2022-12-18T07:35:53.862Z,102394.97
2022-12-18T07:36:57.175Z,102392.72
2022-12-18T07:37:59.304Z,102395.56
2022-12-18T07:39:02.717Z,102393.22
2022-12-18T07:40:07.965Z,102388.66
2022-12-18T07:41:13.986Z,102392.50
2022-12-18T07:42:34.421Z,102393.59
2022-12-18T07:43:38.612Z,102394.97
2022-12-18T07:44:42.235Z,102395.97
2022-12-18T07:45:45.077Z,102388.38
2022-12-18T07:46:48.290Z,102389.91
2022-12-18T07:47:51.119Z,102399.09
2022-12-18T07:48:54.562Z,102396.13
2022-12-18T07:49:56.961Z,102401.06
2022-12-18T07:51:01.232Z,102400.72
2022-12-18T07:52:03.615Z,102397.06
2022-12-18T07:53:07.163Z,102398.63
2022-12-18T07:54:09.523Z,102393.59
2022-12-18T07:55:14.555Z,102394.22
2022-12-18T07:56:32.395Z,102399.13
2022-12-18T07:57:50.401Z,102393.25
2022-12-18T07:58:54.809Z,102403.06
2022-12-18T07:59:58.172Z,102396.59
2022-12-18T08:01:04.707Z,102405.13
2022-12-18T08:02:09.980Z,102399.69
2022-12-18T08:03:13.777Z,102400.81
2022-12-18T08:04:17.216Z,102402.59
2022-12-18T08:05:19.435Z,102397.69
2022-12-18T08:06:24.081Z,102396.47
2022-12-18T08:07:26.977Z,102393.69
2022-12-18T08:08:30.541Z,102398.75
2022-12-18T08:09:32.914Z,102398.06
2022-12-18T08:10:37.641Z,102400.66
2022-12-18T08:11:41.307Z,102401.78
2022-12-18T08:12:43.593Z,102412.28
2022-12-18T08:13:46.876Z,102406.25
2022-12-18T08:14:49.096Z,102400.28
2022-12-18T08:15:59.172Z,102405.16
2022-12-18T08:17:02.645Z,102413.88
2022-12-18T08:18:06.523Z,102416.06
2022-12-18T08:19:12.812Z,102417.72
2022-12-18T08:20:16.069Z,102414.47
2022-12-18T08:21:22.362Z,102419.09
2022-12-18T08:22:26.552Z,102413.34
2022-12-18T08:23:29.018Z,102417.34
2022-12-18T08:24:32.358Z,102411.59
2022-12-18T08:25:36.972Z,102420.59
2022-12-18T08:26:40.224Z,102419.19
2022-12-18T08:28:41.552Z,102421.50
2022-12-18T08:29:44.917Z,102416.63
2022-12-18T08:30:47.171Z,102412.25
2022-12-18T08:31:50.572Z,102421.94
2022-12-18T08:32:54.107Z,102419.31
2022-12-18T08:33:57.720Z,102422.94
2022-12-18T08:35:00.157Z,102428.16
2022-12-18T08:36:04.933Z,102435.03
2022-12-18T08:37:08.522Z,102428.56
2022-12-18T08:38:10.981Z,102432.41
2022-12-18T08:39:14.879Z,102432.59
2022-12-18T08:40:17.457Z,102439.81
2022-12-18T08:41:22.839Z,102433.53
2022-12-18T08:42:43.840Z,102437.78
2022-12-18T08:44:05.115Z,102436.31
2022-12-18T08:45:09.713Z,102447.84
2022-12-18T08:46:12.382Z,102440.78
2022-12-18T08:47:15.840Z,102440.56
2022-12-18T08:48:22.205Z,102442.59
2022-12-18T08:49:25.756Z,102449.66
2022-12-18T08:50:28.067Z,102449.28
2022-12-18T08:51:31.644Z,102453.81
2022-12-18T08:52:35.294Z,102459.88
2022-12-18T08:53:37.852Z,102461.09
2022-12-18T08:54:41.511Z,102455.69
2022-12-18T08:55:49.957Z,102459.31
2022-12-18T08:56:55.083Z,102462.44
2022-12-18T08:57:57.232Z,102467.19
2022-12-18T08:59:00.716Z,102466.06
2022-12-18T09:00:04.721Z,102463.03
2022-12-18T09:01:10.443Z,102462.72
2022-12-18T09:02:14.133Z,102465.44
2022-12-18T09:03:18.347Z,102468.09
2022-12-18T09:04:21.943Z,102474.72
2022-12-18T09:05:25.770Z,102473.03
2022-12-18T09:06:28.041Z,102469.78
2022-12-18T09:07:31.405Z,102481.91
2022-12-18T09:08:33.603Z,102480.91
2022-12-18T09:09:38.421Z,102480.81
2022-12-18T09:10:43.681Z,102478.28
2022-12-18T09:11:47.306Z,102479.16
2022-12-18T09:12:51.298Z,102477.34
2022-12-18T09:13:56.139Z,102481.09
2022-12-18T09:14:58.595Z,102481.28
2022-12-18T09:16:01.939Z,102475.03
2022-12-18T09:17:04.426Z,102485.50
2022-12-18T09:18:08.320Z,102486.66
2022-12-18T09:19:12.390Z,102483.09
2022-12-18T09:20:15.943Z,102484.72
2022-12-18T09:21:21.430Z,102483.63
2022-12-18T09:22:24.862Z,102480.03
2022-12-18T09:23:27.085Z,102488.25
2022-12-18T09:24:30.253Z,102486.47
2022-12-18T09:25:34.261Z,102492.16
2022-12-18T09:26:37.745Z,102494.38
2022-12-18T09:27:42.130Z,102495.97
2022-12-18T09:28:46.029Z,102495.16
2022-12-18T09:29:49.313Z,102494.72
2022-12-18T09:30:51.578Z,102491.28
2022-12-18T09:31:54.991Z,102490.44
2022-12-18T09:32:57.452Z,102494.28
2022-12-18T09:34:00.817Z,102495.75
2022-12-18T09:35:04.254Z,102503.13
2022-12-18T09:36:09.271Z,102506.88
2022-12-18T09:37:12.737Z,102503.88
2022-12-18T09:38:16.718Z,102499.25
2022-12-18T09:39:23.449Z,102499.34
2022-12-18T09:40:30.370Z,102491.97
2022-12-18T09:41:45.095Z,102493.25
2022-12-18T09:42:53.224Z,102497.31
2022-12-18T09:44:02.006Z,102501.34
2022-12-18T09:45:06.506Z,102494.72
2022-12-18T09:46:13.538Z,102500.47
2022-12-18T09:47:21.933Z,102502.78
2022-12-18T09:48:29.505Z,102499.75
2022-12-18T09:49:37.262Z,102506.38
2022-12-18T09:50:42.838Z,102504.06
2022-12-18T09:51:49.429Z,102496.97
2022-12-18T09:52:58.948Z,102500.41
2022-12-18T09:54:05.974Z,102506.91
2022-12-18T09:55:26.656Z,102500.50
2022-12-18T09:56:33.137Z,102502.41
2022-12-18T09:57:41.720Z,102503.91
2022-12-18T09:58:51.431Z,102507.34
2022-12-18T10:00:00.010Z,102509.06
2022-12-18T10:01:03.755Z,102512.63
2022-12-18T10:02:22.479Z,102515.94
2022-12-18T10:03:26.000Z,102513.22
2022-12-18T10:04:31.346Z,102509.75
2022-12-18T10:05:42.505Z,102511.09
2022-12-18T10:06:50.971Z,102514.91
2022-12-18T10:08:04.679Z,102517.91
2022-12-18T10:09:15.089Z,102513.59
2022-12-18T10:10:28.204Z,102512.97
2022-12-18T10:11:42.190Z,102516.28
2022-12-18T10:13:00.934Z,102516.88
2022-12-18T10:14:17.786Z,102518.53
2022-12-18T10:15:32.720Z,102509.75
2022-12-18T10:16:43.870Z,102514.69
2022-12-18T10:17:54.082Z,102515.03
2022-12-18T10:19:20.559Z,102514.53
2022-12-18T10:20:31.008Z,102519.28
2022-12-18T10:21:41.648Z,102515.03
2022-12-18T10:22:55.477Z,102517.56
2022-12-18T10:24:07.075Z,102513.31
2022-12-18T10:25:21.599Z,102516.88
2022-12-18T10:26:25.023Z,102515.94
2022-12-18T10:27:29.355Z,102505.63
2022-12-18T10:28:34.959Z,102520.31
2022-12-18T10:29:37.557Z,102510.44
2022-12-18T10:30:43.681Z,102513.44
2022-12-18T10:31:46.040Z,102511.72
2022-12-18T10:32:49.335Z,102511.59
2022-12-18T10:33:51.666Z,102509.13
2022-12-18T10:35:00.507Z,102517.00
2022-12-18T10:36:04.509Z,102510.31
2022-12-18T10:37:14.024Z,102516.53
2022-12-18T10:38:26.174Z,102513.19
2022-12-18T10:39:28.331Z,102518.69
2022-12-18T10:40:32.665Z,102516.28
2022-12-18T10:41:34.947Z,102517.91
2022-12-18T10:42:38.437Z,102520.19
2022-12-18T10:43:42.826Z,102517.34
2022-12-18T10:44:45.343Z,102519.97
2022-12-18T10:46:02.868Z,102521.16
2022-12-18T10:47:12.900Z,102518.28
2022-12-18T10:48:23.450Z,102517.84
2022-12-18T10:49:29.690Z,102516.97
2022-12-18T10:51:09.308Z,102519.53
2022-12-18T10:52:16.655Z,102514.78
2022-12-18T10:53:22.877Z,102514.78
2022-12-18T10:54:27.543Z,102510.59
2022-12-18T10:55:35.091Z,102513.66
2022-12-18T10:56:40.285Z,102517.56
2022-12-18T10:57:44.598Z,102511.03
2022-12-18T10:58:58.620Z,102521.56
2022-12-18T11:00:22.526Z,102524.94
2022-12-18T11:01:28.064Z,102511.66
2022-12-18T11:02:38.099Z,102527.94
2022-12-18T11:03:43.815Z,102517.50
2022-12-18T11:04:53.301Z,102517.81
2022-12-18T11:06:05.446Z,102514.97
2022-12-18T11:07:11.905Z,102513.25
2022-12-18T11:08:23.791Z,102512.56
2022-12-18T11:09:28.922Z,102509.25
2022-12-18T11:10:33.906Z,102511.16
2022-12-18T11:11:37.335Z,102507.31
2022-12-18T11:12:39.543Z,102503.72
2022-12-18T11:13:43.344Z,102506.84
2022-12-18T11:14:49.190Z,102502.91
2022-12-18T11:15:53.208Z,102504.31
2022-12-18T11:18:29.165Z,102502.94
2022-12-18T11:19:36.414Z,102499.72
2022-12-18T11:20:41.603Z,102501.56
2022-12-18T11:21:44.230Z,102491.63
2022-12-18T11:22:58.227Z,102496.00
2022-12-18T11:24:01.455Z,102503.38
2022-12-18T11:25:32.572Z,102498.66
2022-12-18T11:26:37.349Z,102500.00
2022-12-18T11:27:40.592Z,102498.19
2022-12-18T11:28:48.874Z,102494.91
2022-12-18T11:29:53.269Z,102496.63
2022-12-18T11:31:17.987Z,102499.72
2022-12-18T11:32:36.413Z,102495.53
2022-12-18T11:33:58.362Z,102493.44
2022-12-18T11:35:19.492Z,102494.44
2022-12-18T11:36:24.888Z,102491.34
2022-12-18T11:37:30.039Z,102489.63
2022-12-18T11:38:37.568Z,102489.09
2022-12-18T11:39:44.005Z,102495.00
2022-12-18T11:40:54.180Z,102491.75
2022-12-18T11:42:10.393Z,102493.31
2022-12-18T11:43:19.432Z,102493.09
2022-12-18T11:44:27.689Z,102497.25
2022-12-18T11:45:33.382Z,102488.88
2022-12-18T11:46:39.642Z,102487.38
2022-12-18T11:47:52.108Z,102490.72
2022-12-18T11:49:02.454Z,102488.09
2022-12-18T11:50:16.522Z,102485.44
2022-12-18T11:51:30.488Z,102486.69
2022-12-18T11:52:40.067Z,102483.38
2022-12-18T11:53:43.509Z,102480.38
2022-12-18T11:54:45.787Z,102479.22
2022-12-18T11:56:07.219Z,102480.13
2022-12-18T11:57:19.840Z,102474.16
2022-12-18T11:58:35.530Z,102473.69
2022-12-18T11:59:49.640Z,102476.59
2022-12-18T12:01:05.679Z,102485.25
2022-12-18T12:02:33.330Z,102471.31
2022-12-18T12:04:00.290Z,102476.09
2022-12-18T12:05:18.609Z,102479.31
2022-12-18T12:06:29.408Z,102472.94
2022-12-18T12:07:44.261Z,102460.50
2022-12-18T12:09:03.844Z,102464.31
2022-12-18T12:10:20.942Z,102461.59
2022-12-18T12:11:35.735Z,102453.44
2022-12-18T12:12:54.831Z,102457.63
2022-12-18T12:14:11.415Z,102467.53
2022-12-18T12:15:25.385Z,102467.66
2022-12-18T12:16:35.793Z,102456.31
2022-12-18T12:17:44.062Z,102459.06
2022-12-18T12:19:09.190Z,102466.25
2022-12-18T12:20:22.646Z,102463.06
2022-12-18T12:21:37.044Z,102463.75
2022-12-18T12:22:51.967Z,102461.13
2022-12-18T12:24:01.748Z,102460.63
2022-12-18T12:25:22.568Z,102456.69
2022-12-18T12:26:33.961Z,102464.13
2022-12-18T12:27:46.824Z,102455.69
2022-12-18T12:29:10.657Z,102454.50
2022-12-18T12:30:20.266Z,102454.53
2022-12-18T12:31:36.161Z,102449.94
2022-12-18T12:33:01.925Z,102453.91
2022-12-18T12:34:18.997Z,102445.72
2022-12-18T12:35:34.658Z,102451.47
2022-12-18T12:37:04.013Z,102448.34
2022-12-18T12:38:12.418Z,102447.25